sensor_id;sensor_type;location;lat;lon;timestamp;P1;durP1;ratioP1;P2;durP2;ratioP2
1024;SDS011;501;48.214;11.350;2022-11-18T00:02:07;0.77;;;0.67;;
1024;SDS011;501;48.214;11.350;2022-11-18T00:04:32;0.80;;;0.67;;
1024;SDS011;501;48.214;11.350;2022-11-18T00:06:58;0.77;;;0.77;;
1024;SDS011;501;48.214;11.350;2022-11-18T00:09:23;2.20;;;1.10;;
1024;SDS011;501;48.214;11.350;2022-11-18T00:11:49;0.80;;;0.80;;
1024;SDS011;501;48.214;11.350;2022-11-18T00:14:33;0.60;;;0.60;;
1024;SDS011;501;48.214;11.350;2022-11-18T00:16:59;1.60;;;0.77;;
1024;SDS011;501;48.214;11.350;2022-11-18T00:19:28;1.03;;;0.50;;
1024;SDS011;501;48.214;11.350;2022-11-18T00:21:58;0.87;;;0.60;;
1024;SDS011;501;48.214;11.350;2022-11-18T00:24:25;0.50;;;0.40;;
1024;SDS011;501;48.214;11.350;2022-11-18T00:26:51;0.67;;;0.53;;
1024;SDS011;501;48.214;11.350;2022-11-18T00:29:17;0.40;;;0.30;;
1024;SDS011;501;48.214;11.350;2022-11-18T00:31:43;1.07;;;0.57;;
1024;SDS011;501;48.214;11.350;2022-11-18T00:34:10;0.40;;;0.40;;
1024;SDS011;501;48.214;11.350;2022-11-18T00:36:40;0.80;;;0.50;;
1024;SDS011;501;48.214;11.350;2022-11-18T00:39:06;0.80;;;0.40;;
1024;SDS011;501;48.214;11.350;2022-11-18T00:41:34;0.50;;;0.40;;
1024;SDS011;501;48.214;11.350;2022-11-18T00:44:18;0.70;;;0.40;;
1024;SDS011;501;48.214;11.350;2022-11-18T00:46:44;0.47;;;0.30;;
1024;SDS011;501;48.214;11.350;2022-11-18T00:49:09;3.63;;;0.60;;
1024;SDS011;501;48.214;11.350;2022-11-18T00:51:35;0.33;;;0.33;;
1024;SDS011;501;48.214;11.350;2022-11-18T00:54:02;0.70;;;0.33;;
1024;SDS011;501;48.214;11.350;2022-11-18T00:56:28;0.70;;;0.30;;
1024;SDS011;501;48.214;11.350;2022-11-18T00:58:54;0.73;;;0.70;;
1024;SDS011;501;48.214;11.350;2022-11-18T01:01:20;0.40;;;0.23;;
1024;SDS011;501;48.214;11.350;2022-11-18T01:03:45;0.30;;;0.30;;
1024;SDS011;501;48.214;11.350;2022-11-18T01:06:11;0.50;;;0.40;;
1024;SDS011;501;48.214;11.350;2022-11-18T01:08:37;0.53;;;0.40;;
1024;SDS011;501;48.214;11.350;2022-11-18T01:11:02;0.40;;;0.30;;
1024;SDS011;501;48.214;11.350;2022-11-18T01:13:50;0.40;;;0.30;;
1024;SDS011;501;48.214;11.350;2022-11-18T01:16:20;1.90;;;0.97;;
1024;SDS011;501;48.214;11.350;2022-11-18T01:18:48;0.40;;;0.40;;
1024;SDS011;501;48.214;11.350;2022-11-18T01:21:14;0.50;;;0.50;;
1024;SDS011;501;48.214;11.350;2022-11-18T01:23:40;0.87;;;0.50;;
1024;SDS011;501;48.214;11.350;2022-11-18T01:26:07;0.50;;;0.50;;
1024;SDS011;501;48.214;11.350;2022-11-18T01:28:34;0.77;;;0.50;;
1024;SDS011;501;48.214;11.350;2022-11-18T01:31:33;0.70;;;0.60;;
1024;SDS011;501;48.214;11.350;2022-11-18T01:33:52;0.60;;;0.50;;
1024;SDS011;501;48.214;11.350;2022-11-18T01:36:21;0.87;;;0.60;;
1024;SDS011;501;48.214;11.350;2022-11-18T01:38:51;0.70;;;0.40;;
1024;SDS011;501;48.214;11.350;2022-11-18T01:41:18;0.40;;;0.40;;
1024;SDS011;501;48.214;11.350;2022-11-18T01:46:47;0.80;;;0.53;;
1024;SDS011;501;48.214;11.350;2022-11-18T01:49:12;0.93;;;0.50;;
1024;SDS011;501;48.214;11.350;2022-11-18T01:51:49;0.67;;;0.40;;
1024;SDS011;501;48.214;11.350;2022-11-18T01:54:20;1.07;;;0.50;;
1024;SDS011;501;48.214;11.350;2022-11-18T01:57:07;0.43;;;0.43;;
1024;SDS011;501;48.214;11.350;2022-11-18T01:59:38;0.50;;;0.50;;
1024;SDS011;501;48.214;11.350;2022-11-18T02:02:07;0.80;;;0.60;;
1024;SDS011;501;48.214;11.350;2022-11-18T02:04:36;3.97;;;1.50;;
1024;SDS011;501;48.214;11.350;2022-11-18T02:07:04;0.90;;;0.70;;
1024;SDS011;501;48.214;11.350;2022-11-18T02:09:31;0.70;;;0.70;;
1024;SDS011;501;48.214;11.350;2022-11-18T02:11:56;1.07;;;0.93;;
1024;SDS011;501;48.214;11.350;2022-11-18T02:14:26;1.17;;;0.50;;
1024;SDS011;501;48.214;11.350;2022-11-18T02:17:01;1.03;;;0.73;;
1024;SDS011;501;48.214;11.350;2022-11-18T02:30:09;0.60;;;0.60;;
1024;SDS011;501;48.214;11.350;2022-11-18T02:32:44;1.03;;;0.90;;
1024;SDS011;501;48.214;11.350;2022-11-18T02:37:59;1.00;;;0.60;;
1024;SDS011;501;48.214;11.350;2022-11-18T02:43:02;2.03;;;0.80;;
1024;SDS011;501;48.214;11.350;2022-11-18T02:45:31;0.50;;;0.40;;
1024;SDS011;501;48.214;11.350;2022-11-18T02:48:01;1.17;;;0.90;;
1024;SDS011;501;48.214;11.350;2022-11-18T02:50:31;0.93;;;0.70;;
1024;SDS011;501;48.214;11.350;2022-11-18T02:52:59;0.50;;;0.50;;
1024;SDS011;501;48.214;11.350;2022-11-18T02:55:28;0.90;;;0.53;;
1024;SDS011;501;48.214;11.350;2022-11-18T02:57:58;1.23;;;0.60;;
1024;SDS011;501;48.214;11.350;2022-11-18T03:00:26;1.37;;;0.50;;
1024;SDS011;501;48.214;11.350;2022-11-18T03:02:52;0.80;;;0.80;;
1024;SDS011;501;48.214;11.350;2022-11-18T03:08:16;0.70;;;0.70;;
1024;SDS011;501;48.214;11.350;2022-11-18T03:10:48;1.10;;;1.00;;
1024;SDS011;501;48.214;11.350;2022-11-18T03:13:48;0.80;;;0.80;;
1024;SDS011;501;48.214;11.350;2022-11-18T03:16:17;3.73;;;0.63;;
1024;SDS011;501;48.214;11.350;2022-11-18T03:19:04;1.03;;;0.80;;
1024;SDS011;501;48.214;11.350;2022-11-18T03:21:44;1.30;;;0.63;;
1024;SDS011;501;48.214;11.350;2022-11-18T03:24:17;0.73;;;0.53;;
1024;SDS011;501;48.214;11.350;2022-11-18T03:26:50;0.90;;;0.73;;
1024;SDS011;501;48.214;11.350;2022-11-18T03:29:25;1.43;;;0.97;;
1024;SDS011;501;48.214;11.350;2022-11-18T03:32:02;1.50;;;1.00;;
1024;SDS011;501;48.214;11.350;2022-11-18T03:34:36;0.50;;;0.50;;
1024;SDS011;501;48.214;11.350;2022-11-18T03:37:12;1.10;;;0.80;;
1024;SDS011;501;48.214;11.350;2022-11-18T03:39:40;1.10;;;1.00;;
1024;SDS011;501;48.214;11.350;2022-11-18T03:42:12;0.80;;;0.80;;
1024;SDS011;501;48.214;11.350;2022-11-18T03:44:42;0.93;;;0.83;;
1024;SDS011;501;48.214;11.350;2022-11-18T03:47:16;1.17;;;0.90;;
1024;SDS011;501;48.214;11.350;2022-11-18T03:49:49;1.00;;;0.50;;
1024;SDS011;501;48.214;11.350;2022-11-18T03:52:20;0.80;;;0.40;;
1024;SDS011;501;48.214;11.350;2022-11-18T03:54:51;2.60;;;0.40;;
1024;SDS011;501;48.214;11.350;2022-11-18T03:57:21;0.50;;;0.50;;
1024;SDS011;501;48.214;11.350;2022-11-18T04:00:07;0.77;;;0.67;;
1024;SDS011;501;48.214;11.350;2022-11-18T04:02:35;0.57;;;0.40;;
1024;SDS011;501;48.214;11.350;2022-11-18T04:05:05;0.50;;;0.30;;
1024;SDS011;501;48.214;11.350;2022-11-18T04:10:12;0.93;;;0.37;;
1024;SDS011;501;48.214;11.350;2022-11-18T04:12:45;2.00;;;0.30;;
1024;SDS011;501;48.214;11.350;2022-11-18T04:15:24;0.70;;;0.20;;
1024;SDS011;501;48.214;11.350;2022-11-18T04:17:51;1.80;;;0.30;;
1024;SDS011;501;48.214;11.350;2022-11-18T04:20:17;0.40;;;0.30;;
1024;SDS011;501;48.214;11.350;2022-11-18T04:22:45;0.30;;;0.20;;
1024;SDS011;501;48.214;11.350;2022-11-18T04:25:10;0.30;;;0.20;;
1024;SDS011;501;48.214;11.350;2022-11-18T04:27:36;0.40;;;0.30;;
1024;SDS011;501;48.214;11.350;2022-11-18T04:30:02;0.60;;;0.50;;
1024;SDS011;501;48.214;11.350;2022-11-18T04:32:29;0.57;;;0.30;;
1024;SDS011;501;48.214;11.350;2022-11-18T04:34:54;0.40;;;0.30;;
1024;SDS011;501;48.214;11.350;2022-11-18T04:37:20;0.30;;;0.20;;
1024;SDS011;501;48.214;11.350;2022-11-18T04:39:45;1.07;;;0.33;;
1024;SDS011;501;48.214;11.350;2022-11-18T04:42:11;1.20;;;0.40;;
1024;SDS011;501;48.214;11.350;2022-11-18T04:44:37;0.50;;;0.30;;
1024;SDS011;501;48.214;11.350;2022-11-18T04:47:03;0.30;;;0.20;;
1024;SDS011;501;48.214;11.350;2022-11-18T04:49:30;0.67;;;0.30;;
1024;SDS011;501;48.214;11.350;2022-11-18T04:51:56;1.70;;;0.40;;
1024;SDS011;501;48.214;11.350;2022-11-18T04:54:23;1.03;;;0.33;;
1024;SDS011;501;48.214;11.350;2022-11-18T04:56:49;0.37;;;0.30;;
1024;SDS011;501;48.214;11.350;2022-11-18T04:59:17;0.30;;;0.20;;
1024;SDS011;501;48.214;11.350;2022-11-18T05:01:45;3.40;;;0.30;;
1024;SDS011;501;48.214;11.350;2022-11-18T05:04:11;0.30;;;0.20;;
1024;SDS011;501;48.214;11.350;2022-11-18T05:06:38;2.57;;;0.40;;
1024;SDS011;501;48.214;11.350;2022-11-18T05:09:04;0.60;;;0.40;;
1024;SDS011;501;48.214;11.350;2022-11-18T05:11:30;0.73;;;0.30;;
1024;SDS011;501;48.214;11.350;2022-11-18T05:14:15;2.00;;;0.40;;
1024;SDS011;501;48.214;11.350;2022-11-18T05:16:41;1.00;;;0.40;;
1024;SDS011;501;48.214;11.350;2022-11-18T05:19:07;0.60;;;0.33;;
1024;SDS011;501;48.214;11.350;2022-11-18T05:21:33;0.80;;;0.43;;
1024;SDS011;501;48.214;11.350;2022-11-18T05:23:59;0.70;;;0.40;;
1024;SDS011;501;48.214;11.350;2022-11-18T05:26:26;0.37;;;0.27;;
1024;SDS011;501;48.214;11.350;2022-11-18T05:28:51;0.50;;;0.30;;
1024;SDS011;501;48.214;11.350;2022-11-18T05:31:17;0.30;;;0.27;;
1024;SDS011;501;48.214;11.350;2022-11-18T05:33:43;0.83;;;0.40;;
1024;SDS011;501;48.214;11.350;2022-11-18T05:36:10;0.60;;;0.30;;
1024;SDS011;501;48.214;11.350;2022-11-18T05:38:40;1.33;;;0.30;;
1024;SDS011;501;48.214;11.350;2022-11-18T05:41:07;0.73;;;0.47;;
1024;SDS011;501;48.214;11.350;2022-11-18T05:43:33;0.40;;;0.40;;
1024;SDS011;501;48.214;11.350;2022-11-18T05:45:59;0.90;;;0.60;;
1024;SDS011;501;48.214;11.350;2022-11-18T05:48:25;0.60;;;0.43;;
1024;SDS011;501;48.214;11.350;2022-11-18T05:50:51;0.30;;;0.20;;
1024;SDS011;501;48.214;11.350;2022-11-18T05:53:20;0.33;;;0.30;;
1024;SDS011;501;48.214;11.350;2022-11-18T05:58:34;0.67;;;0.30;;
1024;SDS011;501;48.214;11.350;2022-11-18T06:01:01;0.40;;;0.20;;
1024;SDS011;501;48.214;11.350;2022-11-18T06:03:29;0.60;;;0.30;;
1024;SDS011;501;48.214;11.350;2022-11-18T06:05:57;0.60;;;0.40;;
1024;SDS011;501;48.214;11.350;2022-11-18T06:08:27;1.00;;;0.40;;
1024;SDS011;501;48.214;11.350;2022-11-18T06:10:56;0.53;;;0.40;;
1024;SDS011;501;48.214;11.350;2022-11-18T06:13:23;0.60;;;0.60;;
1024;SDS011;501;48.214;11.350;2022-11-18T06:15:54;0.40;;;0.40;;
1024;SDS011;501;48.214;11.350;2022-11-18T06:18:22;1.03;;;0.30;;
1024;SDS011;501;48.214;11.350;2022-11-18T06:20:51;0.50;;;0.40;;
1024;SDS011;501;48.214;11.350;2022-11-18T06:23:19;0.47;;;0.40;;
1024;SDS011;501;48.214;11.350;2022-11-18T06:25:45;0.40;;;0.30;;
1024;SDS011;501;48.214;11.350;2022-11-18T06:28:11;0.30;;;0.30;;
1024;SDS011;501;48.214;11.350;2022-11-18T06:30:41;0.67;;;0.67;;
1024;SDS011;501;48.214;11.350;2022-11-18T06:33:07;0.90;;;0.50;;
1024;SDS011;501;48.214;11.350;2022-11-18T06:35:33;1.23;;;0.40;;
1024;SDS011;501;48.214;11.350;2022-11-18T06:37:59;0.40;;;0.30;;
1024;SDS011;501;48.214;11.350;2022-11-18T06:40:25;0.63;;;0.40;;
1024;SDS011;501;48.214;11.350;2022-11-18T06:42:50;0.50;;;0.50;;
1024;SDS011;501;48.214;11.350;2022-11-18T06:45:34;0.73;;;0.40;;
1024;SDS011;501;48.214;11.350;2022-11-18T06:48:00;5.30;;;0.60;;
1024;SDS011;501;48.214;11.350;2022-11-18T06:50:26;0.40;;;0.40;;
1024;SDS011;501;48.214;11.350;2022-11-18T06:52:52;0.40;;;0.40;;
1024;SDS011;501;48.214;11.350;2022-11-18T06:55:18;0.40;;;0.40;;
1024;SDS011;501;48.214;11.350;2022-11-18T06:57:43;0.47;;;0.40;;
1024;SDS011;501;48.214;11.350;2022-11-18T07:00:09;0.40;;;0.30;;
1024;SDS011;501;48.214;11.350;2022-11-18T07:02:36;0.50;;;0.40;;
1024;SDS011;501;48.214;11.350;2022-11-18T07:05:01;0.30;;;0.30;;
1024;SDS011;501;48.214;11.350;2022-11-18T07:07:28;0.40;;;0.30;;
1024;SDS011;501;48.214;11.350;2022-11-18T07:09:58;0.40;;;0.40;;
1024;SDS011;501;48.214;11.350;2022-11-18T07:12:24;0.40;;;0.40;;
1024;SDS011;501;48.214;11.350;2022-11-18T07:14:49;0.87;;;0.60;;
1024;SDS011;501;48.214;11.350;2022-11-18T07:17:15;1.17;;;0.60;;
1024;SDS011;501;48.214;11.350;2022-11-18T07:19:41;0.50;;;0.40;;
1024;SDS011;501;48.214;11.350;2022-11-18T07:22:06;0.40;;;0.40;;
1024;SDS011;501;48.214;11.350;2022-11-18T07:24:34;1.80;;;0.67;;
1024;SDS011;501;48.214;11.350;2022-11-18T07:27:01;1.00;;;0.60;;
1024;SDS011;501;48.214;11.350;2022-11-18T07:29:27;1.20;;;0.50;;
1024;SDS011;501;48.214;11.350;2022-11-18T07:31:53;0.40;;;0.40;;
1024;SDS011;501;48.214;11.350;2022-11-18T07:34:18;0.60;;;0.50;;
1024;SDS011;501;48.214;11.350;2022-11-18T07:36:44;0.47;;;0.40;;
1024;SDS011;501;48.214;11.350;2022-11-18T07:39:10;0.60;;;0.53;;
1024;SDS011;501;48.214;11.350;2022-11-18T07:41:35;0.40;;;0.30;;
1024;SDS011;501;48.214;11.350;2022-11-18T07:44:04;0.70;;;0.40;;
1024;SDS011;501;48.214;11.350;2022-11-18T07:46:32;1.17;;;0.40;;
1024;SDS011;501;48.214;11.350;2022-11-18T07:49:03;0.57;;;0.40;;
1024;SDS011;501;48.214;11.350;2022-11-18T07:51:33;0.50;;;0.30;;
1024;SDS011;501;48.214;11.350;2022-11-18T07:54:00;0.50;;;0.50;;
1024;SDS011;501;48.214;11.350;2022-11-18T07:56:30;1.47;;;0.60;;
1024;SDS011;501;48.214;11.350;2022-11-18T07:58:56;0.40;;;0.30;;
1024;SDS011;501;48.214;11.350;2022-11-18T08:01:22;0.70;;;0.50;;
1024;SDS011;501;48.214;11.350;2022-11-18T08:03:51;1.47;;;0.40;;
1024;SDS011;501;48.214;11.350;2022-11-18T08:06:17;0.70;;;0.50;;
1024;SDS011;501;48.214;11.350;2022-11-18T08:08:43;1.27;;;0.40;;
1024;SDS011;501;48.214;11.350;2022-11-18T08:11:09;0.50;;;0.50;;
1024;SDS011;501;48.214;11.350;2022-11-18T08:13:37;0.80;;;0.70;;
1024;SDS011;501;48.214;11.350;2022-11-18T08:16:03;0.57;;;0.57;;
1024;SDS011;501;48.214;11.350;2022-11-18T08:18:30;0.80;;;0.80;;
1024;SDS011;501;48.214;11.350;2022-11-18T08:21:00;0.93;;;0.83;;
1024;SDS011;501;48.214;11.350;2022-11-18T08:23:27;0.93;;;0.70;;
1024;SDS011;501;48.214;11.350;2022-11-18T08:25:52;0.80;;;0.80;;
1024;SDS011;501;48.214;11.350;2022-11-18T08:28:25;0.80;;;0.80;;
1024;SDS011;501;48.214;11.350;2022-11-18T08:30:50;1.50;;;1.00;;
1024;SDS011;501;48.214;11.350;2022-11-18T08:33:16;1.17;;;1.00;;
1024;SDS011;501;48.214;11.350;2022-11-18T08:35:41;1.30;;;1.20;;
1024;SDS011;501;48.214;11.350;2022-11-18T08:38:07;1.30;;;1.20;;
1024;SDS011;501;48.214;11.350;2022-11-18T08:40:33;4.83;;;1.20;;
1024;SDS011;501;48.214;11.350;2022-11-18T08:42:58;1.50;;;1.40;;
1024;SDS011;501;48.214;11.350;2022-11-18T08:45:24;1.40;;;1.30;;
1024;SDS011;501;48.214;11.350;2022-11-18T08:47:50;0.93;;;0.93;;
1024;SDS011;501;48.214;11.350;2022-11-18T08:50:16;1.40;;;1.30;;
1024;SDS011;501;48.214;11.350;2022-11-18T08:52:41;1.40;;;1.30;;
1024;SDS011;501;48.214;11.350;2022-11-18T08:55:07;1.27;;;1.17;;
1024;SDS011;501;48.214;11.350;2022-11-18T08:57:32;0.90;;;0.83;;
1024;SDS011;501;48.214;11.350;2022-11-18T08:59:58;1.20;;;1.07;;
1024;SDS011;501;48.214;11.350;2022-11-18T09:02:24;1.20;;;1.10;;
1024;SDS011;501;48.214;11.350;2022-11-18T09:04:50;1.23;;;1.13;;
1024;SDS011;501;48.214;11.350;2022-11-18T09:07:16;1.53;;;1.33;;
1024;SDS011;501;48.214;11.350;2022-11-18T09:09:43;4.33;;;0.90;;
1024;SDS011;501;48.214;11.350;2022-11-18T09:12:08;2.20;;;1.00;;
1024;SDS011;501;48.214;11.350;2022-11-18T09:14:38;0.90;;;0.83;;
1024;SDS011;501;48.214;11.350;2022-11-18T09:17:05;0.50;;;0.47;;
1024;SDS011;501;48.214;11.350;2022-11-18T09:19:30;0.50;;;0.47;;
1024;SDS011;501;48.214;11.350;2022-11-18T09:21:56;1.00;;;0.70;;
1024;SDS011;501;48.214;11.350;2022-11-18T09:24:22;1.50;;;0.70;;
1024;SDS011;501;48.214;11.350;2022-11-18T09:26:47;0.40;;;0.30;;
1024;SDS011;501;48.214;11.350;2022-11-18T09:29:13;1.03;;;0.40;;
1024;SDS011;501;48.214;11.350;2022-11-18T09:31:39;0.30;;;0.30;;
1024;SDS011;501;48.214;11.350;2022-11-18T09:34:05;0.50;;;0.33;;
1024;SDS011;501;48.214;11.350;2022-11-18T09:36:30;0.60;;;0.40;;
1024;SDS011;501;48.214;11.350;2022-11-18T09:38:57;1.33;;;0.40;;
1024;SDS011;501;48.214;11.350;2022-11-18T09:49:44;0.60;;;0.60;;
1024;SDS011;501;48.214;11.350;2022-11-18T09:52:21;0.50;;;0.40;;
1024;SDS011;501;48.214;11.350;2022-11-18T09:54:50;0.40;;;0.30;;
1024;SDS011;501;48.214;11.350;2022-11-18T09:57:20;0.50;;;0.40;;
1024;SDS011;501;48.214;11.350;2022-11-18T09:59:49;1.83;;;0.63;;
1024;SDS011;501;48.214;11.350;2022-11-18T10:05:24;0.40;;;0.40;;
1024;SDS011;501;48.214;11.350;2022-11-18T10:10:28;0.60;;;0.33;;
1024;SDS011;501;48.214;11.350;2022-11-18T10:13:14;0.40;;;0.30;;
1024;SDS011;501;48.214;11.350;2022-11-18T10:15:53;0.60;;;0.30;;
1024;SDS011;501;48.214;11.350;2022-11-18T10:18:29;0.43;;;0.43;;
1024;SDS011;501;48.214;11.350;2022-11-18T10:24:18;0.40;;;0.30;;
1024;SDS011;501;48.214;11.350;2022-11-18T10:26:45;0.60;;;0.40;;
1024;SDS011;501;48.214;11.350;2022-11-18T10:29:11;0.30;;;0.30;;
1024;SDS011;501;48.214;11.350;2022-11-18T10:31:37;0.40;;;0.30;;
1024;SDS011;501;48.214;11.350;2022-11-18T10:34:05;1.30;;;0.63;;
1024;SDS011;501;48.214;11.350;2022-11-18T10:36:34;0.30;;;0.30;;
1024;SDS011;501;48.214;11.350;2022-11-18T10:39:09;0.30;;;0.30;;
1024;SDS011;501;48.214;11.350;2022-11-18T10:41:46;0.53;;;0.37;;
1024;SDS011;501;48.214;11.350;2022-11-18T10:44:26;1.03;;;0.60;;
1024;SDS011;501;48.214;11.350;2022-11-18T10:47:13;1.67;;;0.60;;
1024;SDS011;501;48.214;11.350;2022-11-18T10:49:50;1.53;;;0.73;;
1024;SDS011;501;48.214;11.350;2022-11-18T10:52:17;0.77;;;0.77;;
1024;SDS011;501;48.214;11.350;2022-11-18T10:54:44;1.53;;;0.70;;
1024;SDS011;501;48.214;11.350;2022-11-18T10:59:38;1.13;;;0.73;;
1024;SDS011;501;48.214;11.350;2022-11-18T11:04:40;0.80;;;0.80;;
1024;SDS011;501;48.214;11.350;2022-11-18T11:07:22;1.30;;;1.10;;
1024;SDS011;501;48.214;11.350;2022-11-18T11:10:21;1.97;;;0.90;;
1024;SDS011;501;48.214;11.350;2022-11-18T11:12:49;1.60;;;1.43;;
1024;SDS011;501;48.214;11.350;2022-11-18T11:18:02;0.50;;;0.50;;
1024;SDS011;501;48.214;11.350;2022-11-18T11:21:10;0.90;;;0.77;;
1024;SDS011;501;48.214;11.350;2022-11-18T11:23:40;1.20;;;0.80;;
1024;SDS011;501;48.214;11.350;2022-11-18T11:26:08;0.50;;;0.47;;
1024;SDS011;501;48.214;11.350;2022-11-18T11:28:57;0.80;;;0.70;;
1024;SDS011;501;48.214;11.350;2022-11-18T11:34:25;1.00;;;0.60;;
1024;SDS011;501;48.214;11.350;2022-11-18T11:42:41;1.13;;;0.80;;
1024;SDS011;501;48.214;11.350;2022-11-18T11:47:38;0.80;;;0.80;;
1024;SDS011;501;48.214;11.350;2022-11-18T11:53:23;0.90;;;0.90;;
1024;SDS011;501;48.214;11.350;2022-11-18T12:07:07;1.33;;;0.90;;
1024;SDS011;501;48.214;11.350;2022-11-18T12:17:39;0.33;;;0.30;;
1024;SDS011;501;48.214;11.350;2022-11-18T12:20:43;0.40;;;0.30;;
1024;SDS011;501;48.214;11.350;2022-11-18T12:23:12;0.40;;;0.40;;
1024;SDS011;501;48.214;11.350;2022-11-18T12:28:08;0.50;;;0.30;;
1024;SDS011;501;48.214;11.350;2022-11-18T12:30:33;0.40;;;0.40;;
1024;SDS011;501;48.214;11.350;2022-11-18T12:32:59;1.33;;;0.53;;
1024;SDS011;501;48.214;11.350;2022-11-18T12:35:25;1.20;;;0.40;;
1024;SDS011;501;48.214;11.350;2022-11-18T12:40:30;1.37;;;0.40;;
1024;SDS011;501;48.214;11.350;2022-11-18T12:42:58;1.10;;;1.00;;
1024;SDS011;501;48.214;11.350;2022-11-18T12:48:29;0.40;;;0.33;;
1024;SDS011;501;48.214;11.350;2022-11-18T12:51:01;0.50;;;0.40;;
1024;SDS011;501;48.214;11.350;2022-11-18T12:53:43;0.93;;;0.70;;
1024;SDS011;501;48.214;11.350;2022-11-18T12:58:46;0.87;;;0.60;;
1024;SDS011;501;48.214;11.350;2022-11-18T13:01:27;1.13;;;0.50;;
1024;SDS011;501;48.214;11.350;2022-11-18T13:04:11;0.50;;;0.43;;
1024;SDS011;501;48.214;11.350;2022-11-18T13:06:39;0.40;;;0.40;;
1024;SDS011;501;48.214;11.350;2022-11-18T13:09:27;0.50;;;0.50;;
1024;SDS011;501;48.214;11.350;2022-11-18T13:11:55;0.60;;;0.50;;
1024;SDS011;501;48.214;11.350;2022-11-18T13:14:29;0.90;;;0.63;;
1024;SDS011;501;48.214;11.350;2022-11-18T13:17:25;0.63;;;0.63;;
1024;SDS011;501;48.214;11.350;2022-11-18T13:23:25;1.10;;;0.80;;
1024;SDS011;501;48.214;11.350;2022-11-18T13:26:19;0.70;;;0.70;;
1024;SDS011;501;48.214;11.350;2022-11-18T13:28:59;1.00;;;0.90;;
1024;SDS011;501;48.214;11.350;2022-11-18T13:34:19;3.17;;;1.47;;
1024;SDS011;501;48.214;11.350;2022-11-18T13:36:50;0.80;;;0.80;;
1024;SDS011;501;48.214;11.350;2022-11-18T13:39:24;1.17;;;1.00;;
1024;SDS011;501;48.214;11.350;2022-11-18T13:42:06;1.97;;;0.70;;
1024;SDS011;501;48.214;11.350;2022-11-18T13:45:04;1.43;;;0.90;;
1024;SDS011;501;48.214;11.350;2022-11-18T13:50:24;1.07;;;0.97;;
1024;SDS011;501;48.214;11.350;2022-11-18T13:55:38;1.20;;;1.10;;
1024;SDS011;501;48.214;11.350;2022-11-18T14:00:42;1.77;;;1.20;;
1024;SDS011;501;48.214;11.350;2022-11-18T14:06:03;2.40;;;1.70;;
1024;SDS011;501;48.214;11.350;2022-11-18T14:08:33;1.93;;;1.73;;
1024;SDS011;501;48.214;11.350;2022-11-18T14:11:01;2.30;;;2.10;;
1024;SDS011;501;48.214;11.350;2022-11-18T14:13:47;2.83;;;2.10;;
1024;SDS011;501;48.214;11.350;2022-11-18T14:18:45;3.47;;;2.17;;
1024;SDS011;501;48.214;11.350;2022-11-18T14:21:13;2.30;;;2.00;;
1024;SDS011;501;48.214;11.350;2022-11-18T14:23:50;2.20;;;1.93;;
1024;SDS011;501;48.214;11.350;2022-11-18T14:26:16;1.87;;;1.77;;
1024;SDS011;501;48.214;11.350;2022-11-18T14:28:55;2.40;;;2.20;;
1024;SDS011;501;48.214;11.350;2022-11-18T14:31:23;2.40;;;1.93;;
1024;SDS011;501;48.214;11.350;2022-11-18T14:36:47;1.80;;;1.67;;
1024;SDS011;501;48.214;11.350;2022-11-18T14:39:21;1.87;;;1.77;;
1024;SDS011;501;48.214;11.350;2022-11-18T14:41:49;2.10;;;1.30;;
1024;SDS011;501;48.214;11.350;2022-11-18T14:44:15;1.10;;;1.00;;
1024;SDS011;501;48.214;11.350;2022-11-18T14:46:43;0.77;;;0.70;;
1024;SDS011;501;48.214;11.350;2022-11-18T14:49:17;1.37;;;1.27;;
1024;SDS011;501;48.214;11.350;2022-11-18T14:51:45;0.70;;;0.70;;
1024;SDS011;501;48.214;11.350;2022-11-18T14:54:13;0.80;;;0.70;;
1024;SDS011;501;48.214;11.350;2022-11-18T14:56:40;0.70;;;0.70;;
1024;SDS011;501;48.214;11.350;2022-11-18T14:59:11;0.70;;;0.67;;
1024;SDS011;501;48.214;11.350;2022-11-18T15:01:37;1.00;;;0.90;;
1024;SDS011;501;48.214;11.350;2022-11-18T15:04:04;0.77;;;0.77;;
1024;SDS011;501;48.214;11.350;2022-11-18T15:06:29;1.83;;;1.00;;
1024;SDS011;501;48.214;11.350;2022-11-18T15:08:55;0.80;;;0.80;;
1024;SDS011;501;48.214;11.350;2022-11-18T15:11:20;2.90;;;1.07;;
1024;SDS011;501;48.214;11.350;2022-11-18T15:13:46;1.50;;;1.30;;
1024;SDS011;501;48.214;11.350;2022-11-18T15:16:17;1.40;;;1.23;;
1024;SDS011;501;48.214;11.350;2022-11-18T15:18:46;4.13;;;1.13;;
1024;SDS011;501;48.214;11.350;2022-11-18T15:21:13;1.37;;;1.27;;
1024;SDS011;501;48.214;11.350;2022-11-18T15:23:40;0.93;;;0.77;;
1024;SDS011;501;48.214;11.350;2022-11-18T15:26:13;1.43;;;1.23;;
1024;SDS011;501;48.214;11.350;2022-11-18T15:28:46;1.00;;;0.93;;
1024;SDS011;501;48.214;11.350;2022-11-18T15:31:13;1.67;;;1.20;;
1024;SDS011;501;48.214;11.350;2022-11-18T15:33:39;1.80;;;1.40;;
1024;SDS011;501;48.214;11.350;2022-11-18T15:36:09;1.73;;;1.37;;
1024;SDS011;501;48.214;11.350;2022-11-18T15:38:39;2.30;;;1.70;;
1024;SDS011;501;48.214;11.350;2022-11-18T15:41:06;2.43;;;1.83;;
1024;SDS011;501;48.214;11.350;2022-11-18T15:43:36;1.30;;;1.20;;
1024;SDS011;501;48.214;11.350;2022-11-18T15:46:02;1.83;;;1.40;;
1024;SDS011;501;48.214;11.350;2022-11-18T15:48:28;2.10;;;2.00;;
1024;SDS011;501;48.214;11.350;2022-11-18T15:50:53;1.67;;;1.53;;
1024;SDS011;501;48.214;11.350;2022-11-18T15:53:19;2.23;;;2.07;;
1024;SDS011;501;48.214;11.350;2022-11-18T15:55:45;1.83;;;1.73;;
1024;SDS011;501;48.214;11.350;2022-11-18T15:58:10;2.90;;;1.77;;
1024;SDS011;501;48.214;11.350;2022-11-18T16:00:36;2.37;;;1.90;;
1024;SDS011;501;48.214;11.350;2022-11-18T16:03:01;3.13;;;2.00;;
1024;SDS011;501;48.214;11.350;2022-11-18T16:05:27;2.63;;;2.13;;
1024;SDS011;501;48.214;11.350;2022-11-18T16:07:53;5.37;;;3.17;;
1024;SDS011;501;48.214;11.350;2022-11-18T16:10:18;3.30;;;3.00;;
1024;SDS011;501;48.214;11.350;2022-11-18T16:13:02;3.43;;;1.80;;
1024;SDS011;501;48.214;11.350;2022-11-18T16:15:28;2.20;;;2.00;;
1024;SDS011;501;48.214;11.350;2022-11-18T16:18:12;2.07;;;1.90;;
1024;SDS011;501;48.214;11.350;2022-11-18T16:20:39;1.93;;;1.83;;
1024;SDS011;501;48.214;11.350;2022-11-18T16:23:05;2.10;;;1.50;;
1024;SDS011;501;48.214;11.350;2022-11-18T16:25:31;2.10;;;1.30;;
1024;SDS011;501;48.214;11.350;2022-11-18T16:27:57;1.73;;;1.63;;
1024;SDS011;501;48.214;11.350;2022-11-18T16:30:22;1.27;;;1.17;;
1024;SDS011;501;48.214;11.350;2022-11-18T16:33:07;1.43;;;1.33;;
1024;SDS011;501;48.214;11.350;2022-11-18T16:35:33;3.00;;;2.20;;
1024;SDS011;501;48.214;11.350;2022-11-18T16:37:58;2.80;;;2.60;;
1024;SDS011;501;48.214;11.350;2022-11-18T16:40:24;2.60;;;2.20;;
1024;SDS011;501;48.214;11.350;2022-11-18T16:42:50;4.27;;;1.70;;
1024;SDS011;501;48.214;11.350;2022-11-18T16:45:16;1.53;;;1.17;;
1024;SDS011;501;48.214;11.350;2022-11-18T16:47:42;1.77;;;1.60;;
1024;SDS011;501;48.214;11.350;2022-11-18T16:50:09;1.63;;;1.53;;
1024;SDS011;501;48.214;11.350;2022-11-18T16:52:35;2.23;;;1.20;;
1024;SDS011;501;48.214;11.350;2022-11-18T16:55:01;1.60;;;1.50;;
1024;SDS011;501;48.214;11.350;2022-11-18T16:57:27;1.77;;;1.67;;
1024;SDS011;501;48.214;11.350;2022-11-18T16:59:52;1.63;;;1.53;;
1024;SDS011;501;48.214;11.350;2022-11-18T17:02:18;2.83;;;2.50;;
1024;SDS011;501;48.214;11.350;2022-11-18T17:04:44;2.63;;;1.80;;
1024;SDS011;501;48.214;11.350;2022-11-18T17:07:10;4.30;;;2.17;;
1024;SDS011;501;48.214;11.350;2022-11-18T17:09:36;4.77;;;2.40;;
1024;SDS011;501;48.214;11.350;2022-11-18T17:12:02;2.93;;;2.53;;
1024;SDS011;501;48.214;11.350;2022-11-18T17:14:28;3.20;;;2.83;;
1024;SDS011;501;48.214;11.350;2022-11-18T17:16:54;3.70;;;2.33;;
1024;SDS011;501;48.214;11.350;2022-11-18T17:19:21;2.50;;;2.30;;
1024;SDS011;501;48.214;11.350;2022-11-18T17:21:47;5.00;;;2.47;;
1024;SDS011;501;48.214;11.350;2022-11-18T17:24:16;2.93;;;2.50;;
1024;SDS011;501;48.214;11.350;2022-11-18T17:26:43;2.73;;;2.50;;
1024;SDS011;501;48.214;11.350;2022-11-18T17:29:09;2.50;;;2.30;;